createdAt,value
2017-07-25T15:04:00.425Z,13.87
2017-07-25T15:06:27.887Z,11.90
2017-07-25T15:08:55.356Z,12.20
2017-07-25T15:11:22.865Z,12.60
2017-07-25T15:13:50.351Z,10.53
2017-07-25T15:16:17.807Z,11.40
2017-07-25T15:18:45.271Z,11.37
2017-07-25T15:21:12.724Z,9.80
2017-07-25T15:23:40.188Z,11.63
2017-07-25T15:26:07.642Z,10.67
2017-07-25T15:28:35.119Z,10.77
2017-07-25T15:31:03.327Z,10.77
2017-07-25T15:33:30.793Z,10.37
2017-07-25T15:35:58.283Z,10.10
2017-07-25T15:38:25.739Z,10.90
2017-07-25T15:40:53.215Z,9.30
2017-07-25T15:43:20.706Z,11.13
2017-07-25T15:45:48.147Z,12.47
2017-07-25T15:48:16.407Z,12.47
2017-07-25T15:50:43.922Z,13.93
2017-07-25T15:53:11.399Z,12.67
2017-07-25T15:55:38.859Z,14.53
2017-07-25T15:58:06.324Z,15.40
2017-07-25T16:00:34.254Z,14.07
2017-07-25T16:03:01.831Z,15.40
2017-07-25T16:05:30.132Z,13.30
2017-07-25T16:07:57.645Z,14.10
2017-07-25T16:10:25.169Z,12.37
2017-07-25T16:12:54.107Z,11.83
2017-07-25T16:15:21.590Z,12.80
2017-07-25T16:17:49.057Z,9.93
2017-07-25T16:20:16.516Z,12.63
2017-07-25T16:22:44.023Z,11.87
2017-07-25T16:25:11.481Z,13.63
2017-07-25T16:27:39.521Z,10.90
2017-07-25T16:30:07.010Z,11.27
2017-07-25T16:32:34.492Z,11.47
2017-07-25T16:35:01.948Z,11.90
2017-07-25T16:37:29.381Z,9.77
2017-07-25T16:39:56.880Z,11.90
2017-07-25T16:42:24.317Z,10.90
2017-07-25T16:44:51.792Z,9.80
2017-07-25T16:47:19.254Z,10.53
2017-07-25T16:49:46.703Z,11.60
2017-07-25T16:52:15.025Z,9.33
2017-07-25T16:54:42.473Z,8.60
2017-07-25T16:57:09.957Z,9.50
2017-07-25T16:59:37.455Z,9.13
2017-07-25T17:02:04.880Z,8.30
2017-07-25T17:04:32.347Z,8.67
2017-07-25T17:06:59.812Z,6.73
2017-07-25T17:09:27.273Z,7.67
2017-07-25T17:11:54.759Z,6.33
2017-07-25T17:14:22.201Z,8.90
2017-07-25T17:16:49.647Z,8.33
2017-07-25T17:19:17.897Z,10.13
2017-07-25T17:21:45.341Z,9.07
2017-07-25T17:24:12.836Z,8.60
2017-07-25T17:26:40.268Z,9.97
2017-07-25T17:29:07.768Z,8.07
2017-07-25T17:31:35.273Z,9.00
2017-07-25T17:34:02.737Z,8.60
2017-07-25T17:36:30.180Z,7.97
2017-07-25T17:38:57.706Z,9.17
2017-07-25T17:41:25.173Z,8.63
2017-07-25T17:43:52.624Z,6.37
2017-07-25T17:46:20.116Z,7.90
2017-07-25T17:48:47.583Z,9.03
2017-07-25T17:51:15.062Z,9.30
2017-07-25T17:53:42.518Z,7.30
2017-07-25T17:56:09.995Z,7.50
2017-07-25T17:58:37.464Z,7.10
2017-07-25T18:01:04.937Z,7.53
2017-07-25T18:03:32.408Z,6.37
2017-07-25T18:05:59.882Z,7.55
2017-07-25T18:08:27.338Z,11.10
2017-07-25T18:10:55.580Z,7.70
2017-07-25T18:13:23.084Z,8.33
2017-07-25T18:15:50.581Z,8.17
2017-07-25T18:18:18.096Z,7.83
2017-07-25T18:20:45.569Z,8.90
2017-07-25T18:23:13.049Z,8.40
2017-07-25T18:25:40.615Z,6.53
2017-07-25T18:28:08.163Z,6.70
2017-07-25T18:30:35.621Z,7.13
2017-07-25T18:33:03.084Z,7.20
2017-07-25T18:35:30.545Z,6.07
2017-07-25T18:37:58.000Z,6.37
2017-07-25T18:40:25.453Z,5.17
2017-07-25T18:42:52.895Z,6.13
2017-07-25T18:45:20.387Z,6.30
2017-07-25T18:47:47.989Z,5.72
2017-07-25T18:50:15.475Z,7.50
2017-07-25T18:52:42.971Z,7.07
2017-07-25T18:55:10.436Z,8.43
2017-07-25T18:57:38.024Z,6.70
2017-07-25T19:00:05.679Z,6.90
2017-07-25T19:02:33.261Z,7.55
2017-07-25T19:05:00.767Z,8.57
2017-07-25T19:07:28.346Z,7.70
2017-07-25T19:09:55.913Z,8.68
2017-07-25T19:12:23.488Z,8.32
2017-07-25T19:14:51.102Z,9.23
2017-07-25T19:17:19.478Z,8.13
2017-07-25T19:19:47.110Z,7.07
2017-07-25T19:22:14.725Z,9.90
2017-07-25T19:24:42.414Z,7.00
2017-07-25T19:27:10.083Z,6.62
2017-07-25T19:29:37.710Z,4.57
2017-07-25T19:32:05.467Z,5.18
2017-07-25T19:34:33.996Z,7.00
2017-07-25T19:37:01.712Z,4.90
2017-07-25T19:39:30.218Z,5.47
2017-07-25T19:41:57.933Z,4.70
2017-07-25T19:44:25.691Z,7.07
2017-07-25T19:46:54.181Z,6.43
2017-07-25T19:49:22.659Z,5.68
2017-07-25T19:51:50.987Z,6.25
2017-07-25T19:54:19.193Z,6.25
2017-07-25T19:56:47.739Z,6.12
2017-07-25T19:59:15.344Z,8.05
2017-07-25T20:01:43.766Z,8.43
2017-07-25T20:04:11.344Z,6.75
2017-07-25T20:06:38.974Z,8.60
2017-07-25T20:09:06.493Z,6.22
2017-07-25T20:11:34.011Z,6.62
2017-07-25T20:14:01.515Z,7.62
2017-07-25T20:16:28.985Z,7.82
2017-07-25T20:18:56.484Z,8.48
2017-07-25T20:21:23.964Z,9.00
2017-07-25T20:23:51.444Z,7.70
2017-07-25T20:26:18.949Z,8.27
2017-07-25T20:28:47.166Z,7.90
2017-07-25T20:31:14.671Z,7.93
2017-07-25T20:33:42.164Z,8.25
2017-07-25T20:36:09.653Z,7.15
2017-07-25T20:38:37.943Z,6.93
2017-07-25T20:41:05.391Z,7.00
2017-07-25T20:43:32.857Z,7.50
2017-07-25T20:46:00.396Z,5.82
2017-07-25T20:48:27.871Z,4.50
2017-07-25T20:50:55.345Z,6.22
2017-07-25T20:53:23.586Z,4.50
2017-07-25T20:55:51.052Z,6.00
2017-07-25T20:58:18.498Z,4.23
2017-07-25T21:00:45.966Z,4.43
2017-07-25T21:03:13.424Z,5.85
2017-07-25T21:05:41.666Z,5.35
2017-07-25T21:08:09.136Z,5.23
2017-07-25T21:10:36.579Z,3.83
2017-07-25T21:13:04.096Z,3.87
2017-07-25T21:15:31.554Z,4.47
2017-07-25T21:17:59.040Z,3.60
2017-07-25T21:20:26.558Z,2.97
2017-07-25T21:22:54.027Z,3.90
2017-07-25T21:25:21.583Z,3.60
2017-07-25T21:27:49.077Z,4.40
2017-07-25T21:30:16.588Z,4.20
2017-07-25T21:32:44.075Z,3.95
2017-07-25T21:35:11.558Z,3.10
2017-07-25T21:37:39.011Z,3.12
2017-07-25T21:40:06.508Z,4.03
2017-07-25T21:42:33.941Z,3.40
2017-07-25T21:45:02.214Z,2.97
2017-07-25T21:47:29.660Z,2.83
2017-07-25T21:49:57.129Z,2.33
2017-07-25T21:52:24.575Z,2.40
2017-07-25T21:54:52.044Z,2.00
2017-07-25T21:57:19.496Z,3.23
2017-07-25T21:59:46.974Z,2.30
2017-07-25T22:02:26.328Z,3.93
2017-07-25T22:05:04.077Z,2.20
2017-07-25T22:07:31.561Z,2.40
2017-07-25T22:09:59.003Z,2.50
2017-07-25T22:12:26.476Z,3.27
2017-07-25T22:14:54.707Z,2.10
2017-07-25T22:17:22.153Z,2.60
2017-07-25T22:19:54.666Z,2.77
2017-07-25T22:22:22.140Z,3.30
2017-07-25T22:24:49.587Z,2.90
2017-07-25T22:27:17.872Z,2.27
2017-07-25T22:29:45.316Z,3.77
2017-07-25T22:32:12.959Z,4.20
2017-07-25T22:34:40.459Z,3.43
2017-07-25T22:37:07.902Z,2.17
2017-07-25T22:39:35.339Z,2.10
2017-07-25T22:42:02.815Z,2.20
2017-07-25T22:44:30.276Z,2.10
2017-07-25T22:46:57.736Z,2.83
2017-07-25T22:49:25.199Z,1.60
2017-07-25T22:51:52.663Z,1.47
2017-07-25T22:54:20.619Z,1.70
2017-07-25T22:56:48.065Z,1.77
2017-07-25T22:59:15.522Z,1.67
2017-07-25T23:01:42.973Z,1.63
2017-07-25T23:04:10.435Z,4.57
2017-07-25T23:06:37.896Z,1.77
2017-07-25T23:09:05.333Z,1.47
2017-07-25T23:11:32.790Z,1.53
2017-07-25T23:14:00.319Z,1.40
2017-07-25T23:16:28.524Z,1.73
2017-07-25T23:18:55.997Z,1.50
2017-07-25T23:21:23.447Z,1.93
2017-07-25T23:23:51.685Z,1.93
2017-07-25T23:26:19.123Z,1.53
2017-07-25T23:28:47.336Z,2.67
2017-07-25T23:31:14.803Z,1.43
2017-07-25T23:33:42.247Z,1.67
2017-07-25T23:36:09.720Z,2.40
2017-07-25T23:38:37.180Z,2.53
2017-07-25T23:41:04.689Z,3.33
2017-07-25T23:43:32.931Z,2.30
2017-07-25T23:46:00.364Z,1.80
2017-07-25T23:48:27.828Z,1.50
2017-07-25T23:50:56.080Z,1.87
2017-07-25T23:53:23.640Z,6.33
2017-07-25T23:55:51.112Z,1.80
2017-07-25T23:58:18.572Z,1.53
